Time;durP1;ratioP1;P1;durP2;ratioP2;P2;SDS_P1;SDS_P2;PMS_P1;PMS_P2;Temp;Humidity;BMP_temperature;BMP_pressure;BME280_temperature;BME280_humidity;BME280_pressure;Samples;Min_cycle;Max_cycle;Signal;HPM_P1;HPM_P2
2023/12/10 00:00:48;;;;;;;6.75;2.40;;;11.00;79.60;;;;;;4993172;28;20041;-78
2023/12/10 00:03:13;;;;;;;5.93;1.95;;;11.00;79.60;;;;;;4992927;28;20504;-76
2023/12/10 00:05:39;;;;;;;4.10;1.67;;;11.00;79.60;;;;;;4975832;28;20038;-76
2023/12/10 00:08:05;;;;;;;4.03;1.90;;;11.00;79.60;;;;;;4993166;28;20124;-76
2023/12/10 00:10:31;;;;;;;5.13;1.90;;;11.00;79.60;;;;;;4976564;28;20121;-76
2023/12/10 00:12:56;;;;;;;5.95;2.10;;;11.00;79.60;;;;;;4976696;28;20030;-77
2023/12/10 00:15:22;;;;;;;6.53;1.95;;;11.00;80.30;;;;;;4976562;28;20466;-76
2023/12/10 00:17:48;;;;;;;6.07;2.05;;;11.00;79.60;;;;;;4993525;28;20026;-76
2023/12/10 00:20:14;;;;;;;6.50;1.80;;;11.00;79.60;;;;;;4992653;28;20053;-76
2023/12/10 00:22:40;;;;;;;4.88;2.53;;;11.00;80.20;;;;;;4992339;28;20117;-77
2023/12/10 00:25:06;;;;;;;6.20;1.95;;;11.00;79.60;;;;;;4992647;28;20054;-77
2023/12/10 00:27:32;;;;;;;6.10;2.08;;;11.00;79.60;;;;;;4976605;28;20036;-76
2023/12/10 00:29:57;;;;;;;5.68;2.33;;;11.00;79.60;;;;;;4976558;28;20125;-76
2023/12/10 00:32:23;;;;;;;5.78;2.08;;;11.00;79.60;;;;;;4992899;28;20034;-75
2023/12/10 00:34:49;;;;;;;4.70;1.88;;;11.00;79.50;;;;;;4992459;28;20037;-76
2023/12/10 00:37:15;;;;;;;5.57;1.77;;;11.00;79.50;;;;;;4960983;28;20030;-76
2023/12/10 00:39:40;;;;;;;4.90;1.98;;;11.00;79.50;;;;;;4992781;28;20121;-76
2023/12/10 00:42:06;;;;;;;6.00;2.00;;;11.00;79.50;;;;;;4976271;28;20046;-77
2023/12/10 00:44:32;;;;;;;5.13;1.92;;;11.00;79.50;;;;;;4992462;28;20050;-77
2023/12/10 00:46:58;;;;;;;6.07;1.92;;;11.00;79.50;;;;;;4993918;28;20076;-77
2023/12/10 00:49:23;;;;;;;5.70;2.35;;;11.00;79.50;;;;;;4960449;28;20128;-76
2023/12/10 00:51:49;;;;;;;4.75;1.77;;;11.00;79.50;;;;;;4976054;28;20034;-76
2023/12/10 00:54:15;;;;;;;5.07;1.98;;;11.00;79.50;;;;;;4992968;28;20033;-76
2023/12/10 00:56:42;;;;;;;6.60;1.85;;;11.00;79.50;;;;;;4976232;28;20035;-76
2023/12/10 00:59:08;;;;;;;6.28;1.83;;;11.00;79.50;;;;;;4975929;28;20060;-77
2023/12/10 01:01:33;;;;;;;4.72;2.05;;;11.00;79.50;;;;;;4960030;28;20042;-76
2023/12/10 01:03:59;;;;;;;8.57;2.28;;;11.00;79.50;;;;;;4992294;28;20038;-76
2023/12/10 01:06:25;;;;;;;6.40;1.83;;;11.10;79.50;;;;;;4992517;28;20034;-76
2023/12/10 01:08:51;;;;;;;5.88;2.30;;;11.10;79.50;;;;;;4959957;28;20497;-76
2023/12/10 01:11:16;;;;;;;5.03;1.80;;;11.00;79.40;;;;;;4991998;28;20042;-76
2023/12/10 01:13:42;;;;;;;5.07;2.08;;;11.10;79.50;;;;;;4976026;28;20088;-77
2023/12/10 01:16:08;;;;;;;6.10;1.95;;;11.10;79.50;;;;;;4976743;28;20109;-76
2023/12/10 01:18:37;;;;;;;6.60;2.45;;;11.10;79.50;;;;;;4995282;28;20027;-75
2023/12/10 01:21:09;;;;;;;6.20;1.75;;;11.10;79.50;;;;;;4995663;28;20030;-76
2023/12/10 01:23:36;;;;;;;5.72;2.08;;;11.10;79.50;;;;;;4996351;28;20467;-77
2023/12/10 01:26:03;;;;;;;5.88;2.00;;;11.10;79.50;;;;;;4979383;28;20031;-76
2023/12/10 01:28:30;;;;;;;7.10;2.33;;;11.10;79.50;;;;;;4995905;28;20034;-76
2023/12/10 01:30:55;;;;;;;6.82;2.10;;;11.10;79.50;;;;;;4997180;28;20058;-77
2023/12/10 01:33:21;;;;;;;5.35;1.77;;;11.10;79.50;;;;;;4996342;28;20522;-75
2023/12/10 01:35:47;;;;;;;4.25;1.90;;;11.10;79.50;;;;;;4995647;28;20420;-77
2023/12/10 01:38:13;;;;;;;7.00;1.98;;;11.10;79.50;;;;;;4979519;28;20475;-76
2023/12/10 01:40:38;;;;;;;6.10;1.92;;;11.10;79.50;;;;;;4995748;28;20045;-77
2023/12/10 01:43:08;;;;;;;5.72;2.15;;;11.10;79.50;;;;;;4995150;28;20180;-74
2023/12/10 01:45:34;;;;;;;5.78;1.95;;;11.10;79.50;;;;;;4996804;28;20426;-76
2023/12/10 01:48:04;;;;;;;4.22;1.75;;;11.10;79.50;;;;;;4979458;28;20035;-76
2023/12/10 01:50:33;;;;;;;4.40;1.90;;;11.10;79.60;;;;;;4996123;28;20038;-76
2023/12/10 01:52:59;;;;;;;5.60;1.70;;;11.10;79.50;;;;;;4995013;28;20034;-77
2023/12/10 01:55:25;;;;;;;5.82;2.00;;;11.10;79.50;;;;;;4979265;28;20558;-77
2023/12/10 01:57:52;;;;;;;5.35;2.03;;;11.10;79.50;;;;;;4978926;28;20031;-76
2023/12/10 02:00:18;;;;;;;6.10;2.05;;;11.10;79.50;;;;;;4978678;28;20058;-77
2023/12/10 02:02:44;;;;;;;3.10;1.58;;;11.10;79.50;;;;;;4979085;28;20045;-76
2023/12/10 02:05:10;;;;;;;5.57;1.88;;;11.00;79.50;;;;;;4979801;28;20507;-76
2023/12/10 02:07:37;;;;;;;5.32;1.83;;;11.10;79.60;;;;;;4978444;28;20031;-76
2023/12/10 02:10:06;;;;;;;3.92;1.55;;;11.10;79.50;;;;;;4995053;28;20023;-76
2023/12/10 02:12:35;;;;;;;5.07;1.88;;;11.10;79.50;;;;;;4995117;28;20038;-76
2023/12/10 02:15:17;;;;;;;4.20;1.55;;;11.10;79.50;;;;;;4995729;28;20034;-77
2023/12/10 02:17:44;;;;;;;5.30;2.05;;;11.10;79.60;;;;;;4978723;28;20031;-76
2023/12/10 02:20:12;;;;;;;3.80;2.08;;;11.10;79.50;;;;;;4978708;28;20545;-77
2023/12/10 02:23:02;;;;;;;6.78;2.13;;;11.10;79.60;;;;;;4994724;28;20121;-76
2023/12/10 02:25:35;;;;;;;5.15;1.80;;;11.10;79.50;;;;;;4978431;28;20088;-77
2023/12/10 02:28:05;;;;;;;4.20;1.90;;;11.10;79.60;;;;;;4994980;28;20459;-77
2023/12/10 02:30:32;;;;;;;4.82;1.88;;;11.10;79.60;;;;;;4994515;28;20038;-77
2023/12/10 02:32:58;;;;;;;4.80;1.48;;;11.10;79.60;;;;;;4994741;28;20066;-76
2023/12/10 02:35:24;;;;;;;4.25;1.90;;;11.10;79.60;;;;;;4978481;28;20172;-76
2023/12/10 02:37:50;;;;;;;4.00;1.75;;;11.10;79.60;;;;;;4995137;28;20030;-75
2023/12/10 02:40:18;;;;;;;6.32;1.95;;;11.10;79.60;;;;;;4978462;28;20026;-76
2023/12/10 02:42:45;;;;;;;4.03;1.90;;;11.00;79.60;;;;;;4994289;28;20067;-76
2023/12/10 02:45:11;;;;;;;6.00;1.73;;;11.10;79.70;;;;;;4978009;28;20117;-76
2023/12/10 02:47:37;;;;;;;5.70;1.95;;;11.00;79.60;;;;;;4978201;28;20609;-76
2023/12/10 02:50:03;;;;;;;5.70;1.80;;;11.00;79.60;;;;;;4978492;28;20366;-77
2023/12/10 02:52:29;;;;;;;4.47;1.70;;;11.10;79.70;;;;;;4977964;28;20038;-77
2023/12/10 02:54:55;;;;;;;5.50;1.98;;;11.00;79.60;;;;;;4995832;28;20532;-75
2023/12/10 02:57:21;;;;;;;6.95;1.88;;;11.10;79.70;;;;;;4978564;28;20481;-76
2023/12/10 02:59:47;;;;;;;3.47;1.60;;;11.10;79.70;;;;;;4978068;28;20066;-76
2023/12/10 03:02:13;;;;;;;4.03;1.65;;;11.00;79.60;;;;;;4977685;28;20400;-76
2023/12/10 03:04:39;;;;;;;6.32;2.22;;;11.00;79.60;;;;;;4978041;28;20081;-76
2023/12/10 03:07:04;;;;;;;3.83;1.48;;;11.00;79.60;;;;;;4994094;28;20108;-76
2023/12/10 03:09:31;;;;;;;6.10;2.03;;;11.00;79.60;;;;;;4994084;28;20463;-76
2023/12/10 03:11:56;;;;;;;3.85;1.60;;;11.00;79.70;;;;;;4993744;28;20069;-76
2023/12/10 03:14:22;;;;;;;4.50;1.83;;;11.00;79.60;;;;;;4978501;28;20340;-76
2023/12/10 03:16:48;;;;;;;5.22;1.80;;;11.00;79.60;;;;;;4993463;28;20030;-76
2023/12/10 03:19:13;;;;;;;4.60;1.80;;;11.00;79.70;;;;;;4977212;28;20042;-75
2023/12/10 03:21:39;;;;;;;5.72;2.03;;;11.00;79.70;;;;;;4993497;28;20034;-76
2023/12/10 03:24:05;;;;;;;5.40;1.67;;;11.00;79.70;;;;;;4993280;28;20038;-77
2023/12/10 03:26:31;;;;;;;4.80;1.92;;;11.00;79.70;;;;;;4977140;28;20039;-76
2023/12/10 03:28:56;;;;;;;4.95;2.08;;;11.00;79.70;;;;;;4977613;28;20038;-76
2023/12/10 03:31:22;;;;;;;5.53;1.88;;;11.00;79.70;;;;;;4993663;28;20359;-76
2023/12/10 03:33:50;;;;;;;4.85;1.75;;;11.00;79.70;;;;;;4993149;28;20038;-76
2023/12/10 03:36:17;;;;;;;4.65;2.10;;;11.00;79.70;;;;;;4977767;28;20062;-77
2023/12/10 03:38:43;;;;;;;4.28;1.70;;;11.00;79.70;;;;;;4977077;28;20026;-76
2023/12/10 03:41:08;;;;;;;4.93;1.70;;;11.00;79.70;;;;;;4993186;28;20099;-75
2023/12/10 03:43:34;;;;;;;3.35;1.75;;;11.00;79.70;;;;;;4977018;28;20042;-75
2023/12/10 03:46:00;;;;;;;4.45;1.80;;;11.00;79.70;;;;;;4977691;28;20398;-75
2023/12/10 03:48:25;;;;;;;4.47;1.70;;;11.00;79.80;;;;;;4993248;28;20057;-76
2023/12/10 03:50:51;;;;;;;3.60;1.50;;;11.00;79.80;;;;;;4977559;28;20463;-76
2023/12/10 03:53:17;;;;;;;6.97;1.83;;;11.00;79.80;;;;;;4976839;28;20439;-76
2023/12/10 03:55:43;;;;;;;5.65;2.03;;;10.90;79.70;;;;;;4977593;28;20027;-76
2023/12/10 03:58:09;;;;;;;7.05;2.13;;;10.90;79.70;;;;;;4993015;28;20053;-75
2023/12/10 04:00:34;;;;;;;5.18;2.03;;;11.00;79.80;;;;;;4976561;28;20116;-75
2023/12/10 04:03:00;;;;;;;5.07;1.95;;;10.90;79.80;;;;;;4976602;28;20066;-76
2023/12/10 04:05:26;;;;;;;6.97;1.90;;;10.90;79.70;;;;;;4992803;28;20038;-75
2023/12/10 04:07:52;;;;;;;5.85;1.98;;;10.90;79.80;;;;;;4993640;28;20037;-75
2023/12/10 04:10:18;;;;;;;4.30;1.88;;;10.90;79.80;;;;;;4976296;28;20069;-75
2023/12/10 04:12:44;;;;;;;5.35;1.63;;;10.90;79.80;;;;;;4993708;28;20168;-74
2023/12/10 04:15:10;;;;;;;5.50;1.80;;;10.90;79.70;;;;;;4976467;28;20391;-75
2023/12/10 04:17:36;;;;;;;4.05;1.63;;;10.90;79.80;;;;;;4976622;28;20030;-75
2023/12/10 04:20:03;;;;;;;4.13;1.85;;;10.90;79.80;;;;;;4992588;28;20037;-75
2023/12/10 04:22:29;;;;;;;4.53;1.83;;;10.90;79.80;;;;;;4992246;28;20035;-74
2023/12/10 04:24:54;;;;;;;6.00;1.90;;;10.90;79.80;;;;;;4994078;28;20034;-75
2023/12/10 04:27:23;;;;;;;5.05;1.75;;;10.90;79.80;;;;;;4976280;28;20113;-76
2023/12/10 04:29:49;;;;;;;6.50;2.08;;;10.90;79.90;;;;;;4960682;28;20498;-75
2023/12/10 04:32:15;;;;;;;3.47;1.60;;;10.90;79.80;;;;;;4976576;28;20572;-75
2023/12/10 04:34:41;;;;;;;4.80;1.92;;;10.90;79.80;;;;;;4992728;28;20034;-75
2023/12/10 04:37:06;;;;;;;4.75;1.75;;;10.90;79.80;;;;;;4976109;28;20065;-77
2023/12/10 04:39:32;;;;;;;5.80;2.05;;;10.90;79.90;;;;;;4976631;28;20476;-76
2023/12/10 04:41:58;;;;;;;8.98;2.15;;;10.90;79.90;;;;;;4992429;28;20034;-73
2023/12/10 04:44:24;;;;;;;7.13;2.28;;;10.90;79.90;;;;;;4993044;28;20521;-75
2023/12/10 04:46:49;;;;;;;5.65;2.00;;;10.80;79.80;;;;;;4976304;28;20399;-75
2023/12/10 04:49:15;;;;;;;4.93;1.65;;;10.80;79.80;;;;;;4992168;28;20034;-75
2023/12/10 04:51:41;;;;;;;5.88;2.28;;;10.90;79.90;;;;;;4977432;28;20045;-75
2023/12/10 04:54:07;;;;;;;8.05;2.28;;;10.80;79.80;;;;;;4980752;28;20481;-75
2023/12/10 04:56:32;;;;;;;7.97;2.17;;;10.80;79.80;;;;;;4996323;28;20108;-72
2023/12/10 04:58:58;;;;;;;5.22;2.47;;;10.80;79.80;;;;;;4979956;28;20085;-75
2023/12/10 05:01:24;;;;;;;4.90;1.98;;;10.80;79.80;;;;;;4980133;28;20069;-75
2023/12/10 05:03:50;;;;;;;5.22;2.00;;;10.80;79.80;;;;;;4996054;28;20084;-75
2023/12/10 05:06:16;;;;;;;5.38;1.90;;;10.80;79.80;;;;;;4997993;28;20037;-75
2023/12/10 05:08:42;;;;;;;6.47;2.40;;;10.80;79.80;;;;;;4979825;28;20034;-76
2023/12/10 05:11:08;;;;;;;6.20;2.05;;;10.80;79.80;;;;;;4980312;28;20352;-76
2023/12/10 05:13:34;;;;;;;6.70;2.22;;;10.80;79.80;;;;;;4996519;28;20037;-75
2023/12/10 05:16:00;;;;;;;3.95;1.88;;;10.80;79.70;;;;;;4995895;28;20069;-73
2023/12/10 05:18:25;;;;;;;5.78;2.30;;;10.80;79.80;;;;;;4979781;28;20054;-75
2023/12/10 05:20:52;;;;;;;7.95;2.47;;;10.80;79.80;;;;;;4995603;28;20106;-75
2023/12/10 05:23:18;;;;;;;4.18;1.52;;;10.80;79.80;;;;;;4979507;28;20042;-76
2023/12/10 05:25:44;;;;;;;6.20;1.95;;;10.80;79.80;;;;;;4996212;28;20110;-76
2023/12/10 05:28:10;;;;;;;6.43;2.00;;;10.80;79.70;;;;;;4995324;28;20069;-78
2023/12/10 05:30:36;;;;;;;5.45;1.85;;;10.80;79.70;;;;;;4995712;28;20026;-76
2023/12/10 05:33:01;;;;;;;7.85;2.05;;;10.80;79.70;;;;;;4979054;28;20035;-75
2023/12/10 05:35:27;;;;;;;3.95;1.77;;;10.80;79.70;;;;;;4979618;28;20084;-75
2023/12/10 05:37:53;;;;;;;5.35;2.28;;;10.80;79.70;;;;;;4979181;28;20471;-75
2023/12/10 05:40:19;;;;;;;4.50;1.75;;;10.80;79.70;;;;;;4963128;28;20045;-75
2023/12/10 05:42:45;;;;;;;8.00;2.13;;;10.80;79.70;;;;;;4995131;28;20052;-76
2023/12/10 05:45:10;;;;;;;6.30;2.10;;;10.80;79.70;;;;;;4997101;28;20376;-77
2023/12/10 05:47:36;;;;;;;6.35;1.85;;;10.80;79.70;;;;;;4979101;28;20027;-76
2023/12/10 05:50:02;;;;;;;5.13;2.05;;;10.80;79.70;;;;;;4995550;28;20093;-75
2023/12/10 05:52:28;;;;;;;5.90;1.90;;;10.80;79.70;;;;;;4979836;28;20034;-74
2023/12/10 05:54:54;;;;;;;4.43;1.80;;;10.80;79.70;;;;;;4979078;28;20035;-75
2023/12/10 05:57:20;;;;;;;6.32;2.00;;;10.80;79.70;;;;;;4978994;28;20062;-75
2023/12/10 05:59:45;;;;;;;7.30;2.35;;;10.80;79.70;;;;;;4978559;28;20471;-75
2023/12/10 06:02:11;;;;;;;4.07;1.60;;;10.80;79.70;;;;;;4994961;28;20042;-75
2023/12/10 06:04:37;;;;;;;6.10;2.08;;;10.80;79.70;;;;;;4994135;28;20045;-75
2023/12/10 06:07:03;;;;;;;5.40;1.80;;;10.80;79.70;;;;;;4978775;28;20058;-75
2023/12/10 06:09:28;;;;;;;5.22;1.85;;;10.80;79.70;;;;;;4994616;28;20031;-75
2023/12/10 06:11:54;;;;;;;8.18;2.08;;;10.80;79.80;;;;;;4995229;28;20057;-74
2023/12/10 06:14:20;;;;;;;6.13;1.75;;;10.80;79.70;;;;;;4978611;28;20037;-73
2023/12/10 06:16:46;;;;;;;3.92;1.65;;;10.80;79.80;;;;;;4978545;28;20412;-75
2023/12/10 06:19:11;;;;;;;4.85;1.67;;;10.80;79.70;;;;;;4978576;28;20022;-75
2023/12/10 06:21:37;;;;;;;5.70;2.03;;;10.80;79.80;;;;;;4994596;28;20492;-74
2023/12/10 06:24:06;;;;;;;5.50;2.03;;;10.80;79.80;;;;;;4995046;28;20474;-75
2023/12/10 06:26:32;;;;;;;6.82;1.98;;;10.80;79.70;;;;;;4994562;28;20117;-75
2023/12/10 06:28:58;;;;;;;5.65;2.58;;;10.80;79.70;;;;;;4979177;28;20058;-76
2023/12/10 06:31:23;;;;;;;4.55;2.10;;;10.80;79.80;;;;;;4994481;28;20027;-75
2023/12/10 06:33:49;;;;;;;4.93;2.00;;;10.80;79.70;;;;;;4978386;28;20035;-75
2023/12/10 06:36:15;;;;;;;3.28;1.80;;;10.80;79.80;;;;;;4978296;28;20035;-76
2023/12/10 06:38:41;;;;;;;4.85;1.63;;;10.80;79.80;;;;;;4995337;28;20038;-75
2023/12/10 06:41:06;;;;;;;6.68;1.85;;;10.80;79.70;;;;;;4994496;28;20035;-74
2023/12/10 06:43:32;;;;;;;5.13;1.95;;;10.70;79.70;;;;;;4994551;28;20073;-75
2023/12/10 06:45:58;;;;;;;2.55;1.58;;;10.80;79.80;;;;;;4978595;28;20034;-74
2023/12/10 06:48:25;;;;;;;5.78;2.05;;;10.80;79.80;;;;;;4979145;28;20030;-75
2023/12/10 06:50:51;;;;;;;5.07;1.95;;;10.80;79.70;;;;;;4994626;28;20034;-75
2023/12/10 06:53:17;;;;;;;5.55;1.85;;;10.80;79.80;;;;;;4994463;28;20395;-75
2023/12/10 06:55:44;;;;;;;5.47;1.85;;;10.80;79.70;;;;;;4993998;28;20034;-75
2023/12/10 06:58:10;;;;;;;5.13;2.00;;;10.80;79.80;;;;;;4995699;28;20030;-74
2023/12/10 07:00:36;;;;;;;6.22;1.98;;;10.80;79.70;;;;;;4977473;28;20543;-75
2023/12/10 07:03:02;;;;;;;5.03;1.63;;;10.80;79.80;;;;;;4994118;28;20121;-75
2023/12/10 07:05:28;;;;;;;6.53;2.10;;;10.70;79.70;;;;;;4977860;28;20463;-75
2023/12/10 07:07:54;;;;;;;5.47;1.63;;;10.80;79.80;;;;;;4993840;28;20054;-75
2023/12/10 07:10:19;;;;;;;5.32;2.17;;;10.80;79.80;;;;;;4977453;28;20050;-76
2023/12/10 07:12:45;;;;;;;5.68;2.05;;;10.80;79.80;;;;;;4993810;28;20088;-75
2023/12/10 07:15:11;;;;;;;5.30;2.05;;;10.80;79.80;;;;;;4993613;28;20041;-75
2023/12/10 07:17:37;;;;;;;6.40;1.80;;;10.80;79.70;;;;;;4994360;28;20037;-75
2023/12/10 07:20:04;;;;;;;5.53;1.83;;;10.80;79.80;;;;;;4977369;28;20034;-75
2023/12/10 07:22:30;;;;;;;8.10;1.90;;;10.80;79.70;;;;;;4961170;28;20039;-76
2023/12/10 07:24:55;;;;;;;5.05;2.05;;;10.80;79.70;;;;;;4995039;28;20046;-75
2023/12/10 07:27:22;;;;;;;4.38;1.80;;;10.80;79.70;;;;;;4977456;28;20041;-74
2023/12/10 07:29:48;;;;;;;4.43;2.00;;;10.80;79.70;;;;;;4993790;28;20022;-75
2023/12/10 07:32:13;;;;;;;5.78;2.28;;;10.80;79.70;;;;;;4993740;28;20042;-75
2023/12/10 07:34:39;;;;;;;5.72;1.77;;;10.80;79.70;;;;;;4977876;28;20034;-75
2023/12/10 07:37:05;;;;;;;5.18;2.15;;;10.80;79.70;;;;;;4976797;28;20122;-75
2023/12/10 07:39:31;;;;;;;8.45;2.47;;;10.80;79.70;;;;;;4977523;28;20049;-76
2023/12/10 07:41:56;;;;;;;5.93;2.00;;;10.80;79.70;;;;;;4977772;28;20085;-75
2023/12/10 07:44:23;;;;;;;4.50;1.90;;;10.80;79.70;;;;;;4993167;28;20472;-75
2023/12/10 07:46:49;;;;;;;5.35;2.13;;;10.80;79.70;;;;;;4977205;28;20058;-74
2023/12/10 07:49:14;;;;;;;3.65;1.67;;;10.80;79.60;;;;;;4993187;28;20069;-74
2023/12/10 07:51:40;;;;;;;5.07;1.95;;;10.80;79.60;;;;;;4993610;28;20041;-75
2023/12/10 07:54:06;;;;;;;3.85;1.88;;;10.80;79.60;;;;;;4993094;28;20038;-75
2023/12/10 07:56:32;;;;;;;5.68;2.17;;;10.80;79.60;;;;;;4992874;28;20084;-75
2023/12/10 07:58:57;;;;;;;5.55;2.33;;;10.80;79.60;;;;;;4976543;28;20060;-74
2023/12/10 08:01:23;;;;;;;3.25;1.50;;;10.80;79.60;;;;;;4993629;28;20122;-75
2023/12/10 08:03:49;;;;;;;4.07;1.75;;;10.80;79.60;;;;;;4976527;28;20114;-74
2023/12/10 08:06:14;;;;;;;5.10;2.00;;;10.80;79.60;;;;;;4976971;28;20026;-74
2023/12/10 08:08:40;;;;;;;5.20;1.80;;;10.80;79.60;;;;;;4993110;28;20137;-75
2023/12/10 08:11:06;;;;;;;5.85;1.83;;;10.80;79.60;;;;;;4993118;28;20054;-74
2023/12/10 08:13:32;;;;;;;4.40;1.77;;;10.80;79.60;;;;;;4992538;28;20472;-74
2023/12/10 08:15:57;;;;;;;3.13;1.52;;;10.80;79.60;;;;;;4994278;28;20035;-75
2023/12/10 08:18:26;;;;;;;6.07;2.03;;;10.80;79.60;;;;;;4992927;28;20428;-75
2023/12/10 08:20:52;;;;;;;7.20;2.45;;;10.90;79.60;;;;;;4976748;28;20124;-74
2023/12/10 08:23:18;;;;;;;5.15;1.92;;;10.80;79.60;;;;;;4993830;28;20481;-74
2023/12/10 08:25:43;;;;;;;5.30;1.90;;;10.80;79.50;;;;;;4994067;28;20030;-75
2023/12/10 08:28:09;;;;;;;3.53;1.63;;;10.80;79.60;;;;;;4976591;28;20057;-75
2023/12/10 08:30:35;;;;;;;6.22;1.90;;;10.80;79.60;;;;;;4976409;28;20537;-75
2023/12/10 08:33:01;;;;;;;3.55;1.70;;;10.80;79.60;;;;;;4992561;28;20066;-75
2023/12/10 08:35:26;;;;;;;4.65;1.75;;;10.80;79.60;;;;;;4992182;28;20045;-75
2023/12/10 08:37:52;;;;;;;6.43;2.45;;;10.80;79.60;;;;;;4976830;28;20114;-75
2023/12/10 08:40:18;;;;;;;6.47;1.80;;;10.80;79.50;;;;;;4993401;28;20418;-76
2023/12/10 08:42:44;;;;;;;4.03;1.92;;;10.80;79.50;;;;;;4976422;28;20035;-74
2023/12/10 08:45:11;;;;;;;5.63;2.00;;;10.90;79.60;;;;;;4976424;28;20114;-75
2023/12/10 08:47:37;;;;;;;6.15;1.80;;;10.90;79.60;;;;;;4976172;28;20455;-75
2023/12/10 08:50:04;;;;;;;3.78;1.63;;;10.90;79.60;;;;;;4992621;28;20332;-74
2023/12/10 08:52:29;;;;;;;6.47;1.85;;;10.90;79.60;;;;;;4976175;28;20034;-74
2023/12/10 08:54:56;;;;;;;5.70;2.22;;;10.90;79.50;;;;;;4992979;28;20046;-75
2023/12/10 08:57:23;;;;;;;5.43;1.80;;;10.90;79.50;;;;;;4992603;28;20035;-75
2023/12/10 08:59:49;;;;;;;5.55;1.88;;;10.90;79.50;;;;;;4994289;28;20062;-74
2023/12/10 09:02:15;;;;;;;6.85;2.17;;;10.90;79.50;;;;;;4992142;28;20034;-74
2023/12/10 09:04:40;;;;;;;6.57;2.30;;;10.90;79.50;;;;;;4976084;28;20174;-74
2023/12/10 09:07:06;;;;;;;5.03;1.60;;;10.90;79.60;;;;;;4976918;28;20031;-76
2023/12/10 09:09:32;;;;;;;4.35;1.70;;;10.90;79.50;;;;;;4976126;28;20057;-75
2023/12/10 09:11:59;;;;;;;4.20;2.03;;;10.90;79.50;;;;;;4992464;28;20400;-75
2023/12/10 09:14:25;;;;;;;5.20;1.70;;;10.90;79.50;;;;;;4976058;28;20065;-75
2023/12/10 09:16:52;;;;;;;6.15;1.83;;;10.90;79.50;;;;;;4976335;28;20042;-75
2023/12/10 09:19:17;;;;;;;6.03;2.45;;;10.90;79.50;;;;;;4992449;28;20105;-73
2023/12/10 09:21:45;;;;;;;6.50;2.20;;;10.90;79.50;;;;;;4975901;28;20130;-74
2023/12/10 09:24:10;;;;;;;5.25;2.35;;;10.90;80.10;;;;;;4992287;28;20097;-75
2023/12/10 09:26:36;;;;;;;6.15;1.67;;;10.90;79.50;;;;;;4992561;28;20395;-75
2023/12/10 09:29:03;;;;;;;3.67;1.83;;;11.00;79.60;;;;;;4991767;28;20061;-74
2023/12/10 09:31:28;;;;;;;4.22;1.95;;;11.00;79.60;;;;;;4976027;28;20062;-76
2023/12/10 09:33:54;;;;;;;5.40;1.58;;;11.00;79.50;;;;;;4991691;28;20525;-74
2023/12/10 09:36:20;;;;;;;4.03;1.63;;;10.90;79.50;;;;;;4992320;28;20026;-75
2023/12/10 09:38:46;;;;;;;5.50;1.65;;;11.00;79.50;;;;;;4978357;28;20391;-72
2023/12/10 09:41:11;;;;;;;5.00;1.70;;;11.00;79.50;;;;;;4979165;28;20459;-74
2023/12/10 09:43:37;;;;;;;4.30;1.73;;;11.00;79.50;;;;;;4996495;28;20058;-75
2023/12/10 09:46:03;;;;;;;4.28;1.75;;;11.00;79.50;;;;;;4979113;28;20475;-75
2023/12/10 09:48:31;;;;;;;6.53;2.17;;;11.00;79.40;;;;;;4995315;28;20039;-75
2023/12/10 09:50:57;;;;;;;4.95;1.88;;;11.00;79.50;;;;;;4995822;28;20026;-75
2023/12/10 09:53:23;;;;;;;4.88;1.80;;;11.00;79.50;;;;;;4995509;28;20050;-74
2023/12/10 09:55:49;;;;;;;3.35;1.60;;;11.10;79.50;;;;;;4978768;28;20097;-74
2023/12/10 09:58:15;;;;;;;4.93;1.90;;;11.10;79.50;;;;;;4978869;28;20126;-75
2023/12/10 10:00:41;;;;;;;2.53;1.50;;;11.10;79.50;;;;;;4978432;28;20058;-75
2023/12/10 10:03:06;;;;;;;3.22;1.58;;;11.10;79.50;;;;;;4995927;28;20026;-75
2023/12/10 10:05:36;;;;;;;4.20;1.67;;;11.10;79.50;;;;;;4995241;28;20053;-75
2023/12/10 10:08:02;;;;;;;4.57;1.85;;;11.10;79.50;;;;;;4994911;28;20037;-75
2023/12/10 10:10:27;;;;;;;4.57;1.77;;;11.10;79.50;;;;;;4978591;28;20058;-74
2023/12/10 10:12:58;;;;;;;4.75;1.83;;;11.10;79.50;;;;;;4995562;28;20157;-75
2023/12/10 10:15:28;;;;;;;4.57;1.67;;;11.10;79.40;;;;;;4995154;28;20026;-74
2023/12/10 10:17:54;;;;;;;3.30;1.70;;;11.10;79.40;;;;;;4996025;28;20031;-74
2023/12/10 10:20:24;;;;;;;3.92;1.90;;;11.10;79.40;;;;;;4978938;28;20463;-74
2023/12/10 10:22:51;;;;;;;2.70;1.33;;;11.20;79.50;;;;;;4995284;28;20061;-75
2023/12/10 10:25:18;;;;;;;4.28;1.73;;;11.10;79.40;;;;;;4994653;28;20161;-75
2023/12/10 10:27:44;;;;;;;2.28;1.23;;;11.10;79.50;;;;;;4978319;28;20027;-75
2023/12/10 10:30:11;;;;;;;4.80;1.73;;;11.20;79.50;;;;;;4994908;28;20038;-74
2023/12/10 10:32:39;;;;;;;4.22;1.48;;;11.20;79.50;;;;;;4994520;28;20104;-75
2023/12/10 10:35:06;;;;;;;4.95;1.85;;;11.20;79.40;;;;;;4994442;28;20357;-74
2023/12/10 10:37:32;;;;;;;3.50;1.77;;;11.20;79.40;;;;;;4978222;28;20018;-76
2023/12/10 10:39:58;;;;;;;4.63;1.63;;;11.20;79.40;;;;;;4978243;28;20033;-75
2023/12/10 10:42:23;;;;;;;4.32;1.75;;;11.20;79.40;;;;;;4978112;28;20046;-75
2023/12/10 10:44:50;;;;;;;3.58;1.63;;;11.20;79.40;;;;;;4978112;28;20085;-74
2023/12/10 10:47:19;;;;;;;2.63;1.42;;;11.20;79.40;;;;;;4994339;28;20045;-74
2023/12/10 10:49:57;;;;;;;5.13;1.60;;;11.20;79.40;;;;;;4977567;28;20035;-75
2023/12/10 10:52:24;;;;;;;5.20;1.45;;;11.20;79.40;;;;;;4994144;28;20038;-74
2023/12/10 10:54:54;;;;;;;3.60;1.60;;;11.30;79.40;;;;;;4993943;28;20045;-74
2023/12/10 10:57:30;;;;;;;3.63;1.83;;;11.30;79.40;;;;;;4995694;28;20022;-76
2023/12/10 10:59:56;;;;;;;3.28;1.60;;;11.20;79.30;;;;;;4993728;28;20430;-75
2023/12/10 11:02:22;;;;;;;5.00;1.80;;;11.30;79.40;;;;;;4993667;28;20482;-75
2023/12/10 11:04:50;;;;;;;4.72;1.75;;;11.30;79.40;;;;;;4993824;28;20035;-74
2023/12/10 11:07:20;;;;;;;5.22;1.98;;;11.30;79.40;;;;;;4977893;28;20426;-74
2023/12/10 11:10:05;;;;;;;2.30;1.30;;;11.30;79.40;;;;;;4993551;28;20129;-74
2023/12/10 11:12:44;;;;;;;3.55;1.55;;;11.30;79.50;;;;;;4994311;28;20513;-73
2023/12/10 11:15:13;;;;;;;5.22;1.92;;;11.40;79.40;;;;;;4978018;28;20079;-74
2023/12/10 11:17:54;;;;;;;2.60;1.30;;;11.40;79.40;;;;;;4994367;28;20030;-74
2023/12/10 11:20:32;;;;;;;3.33;1.52;;;11.40;79.50;;;;;;4993222;28;20471;-75
2023/12/10 11:23:03;;;;;;;3.92;1.85;;;11.40;79.50;;;;;;4994759;28;20058;-74
2023/12/10 11:25:29;;;;;;;2.60;1.60;;;11.40;79.40;;;;;;4993594;28;20061;-73
2023/12/10 11:28:00;;;;;;;3.30;1.45;;;11.40;79.30;;;;;;4993770;28;20022;-73
2023/12/10 11:30:27;;;;;;;2.85;1.50;;;11.40;79.40;;;;;;4977696;28;20034;-72
2023/12/10 11:32:54;;;;;;;3.63;1.67;;;11.40;79.30;;;;;;4976739;28;20062;-75
2023/12/10 11:35:20;;;;;;;3.25;1.42;;;11.40;79.30;;;;;;4993270;28;20042;-75
2023/12/10 11:37:46;;;;;;;3.33;1.55;;;11.40;79.30;;;;;;4993216;28;20046;-74
2023/12/10 11:40:12;;;;;;;3.63;1.40;;;11.40;79.30;;;;;;4977007;28;20125;-74
2023/12/10 11:42:37;;;;;;;4.05;1.55;;;11.50;79.40;;;;;;4976743;28;20031;-75
2023/12/10 11:45:04;;;;;;;4.70;1.80;;;11.50;79.40;;;;;;4993686;28;20085;-74
2023/12/10 11:47:30;;;;;;;5.30;1.95;;;11.50;79.40;;;;;;4977046;28;20175;-73
2023/12/10 11:49:56;;;;;;;3.08;1.60;;;11.50;79.40;;;;;;4992789;28;20034;-74
2023/12/10 11:52:22;;;;;;;3.72;1.50;;;11.50;79.40;;;;;;4993717;28;20030;-73
2023/12/10 11:54:48;;;;;;;3.15;1.50;;;11.50;79.40;;;;;;4976969;28;20035;-74
2023/12/10 11:57:14;;;;;;;3.90;1.90;;;11.50;79.40;;;;;;4976945;28;20030;-73
2023/12/10 11:59:40;;;;;;;5.85;1.75;;;11.60;79.40;;;;;;4993659;28;20018;-73
2023/12/10 12:02:06;;;;;;;3.45;1.50;;;11.60;79.40;;;;;;4992090;28;20117;-73
2023/12/10 12:04:35;;;;;;;3.38;1.60;;;11.60;79.40;;;;;;4960663;28;20413;-73
2023/12/10 12:07:01;;;;;;;3.10;1.40;;;11.60;79.40;;;;;;4976422;28;20049;-74
2023/12/10 12:09:26;;;;;;;4.55;2.20;;;11.60;79.40;;;;;;4993498;28;20030;-74
2023/12/10 12:11:52;;;;;;;5.15;1.73;;;11.60;79.40;;;;;;4976466;28;20122;-73
2023/12/10 12:14:21;;;;;;;2.95;1.30;;;11.60;79.30;;;;;;4992423;28;20137;-74
2023/12/10 12:16:47;;;;;;;4.13;1.80;;;11.70;79.40;;;;;;4992758;28;20022;-73
2023/12/10 12:19:26;;;;;;;4.15;1.40;;;11.70;79.40;;;;;;4976697;28;20038;-74
2023/12/10 12:21:52;;;;;;;3.95;1.55;;;11.70;79.40;;;;;;4977024;28;20455;-73
2023/12/10 12:24:18;;;;;;;4.47;1.60;;;11.70;79.30;;;;;;4992907;28;20026;-72
2023/12/10 12:26:44;;;;;;;3.45;1.60;;;11.70;79.30;;;;;;4992863;28;20034;-73
2023/12/10 12:29:10;;;;;;;3.45;1.70;;;11.70;79.30;;;;;;4976361;28;20422;-74
2023/12/10 12:31:38;;;;;;;5.07;1.60;;;11.80;79.30;;;;;;4976421;28;20031;-73
2023/12/10 12:34:04;;;;;;;4.63;1.70;;;11.80;79.20;;;;;;4976717;28;20546;-73
2023/12/10 12:36:30;;;;;;;3.30;1.60;;;11.80;79.20;;;;;;4993470;28;20037;-74
2023/12/10 12:38:55;;;;;;;3.75;1.50;;;11.80;79.30;;;;;;4992496;28;20458;-72
2023/12/10 12:41:21;;;;;;;4.68;1.30;;;11.80;79.20;;;;;;4992719;28;20034;-73
2023/12/10 12:43:47;;;;;;;3.38;1.55;;;11.80;79.20;;;;;;4976515;28;20036;-73